Glenshire Elementary, Truckee, California Weather observations

Data are for observation ending at time listed.
 Day   Time    Ave.   Ave.  Ave.  Vector   Max.   Stn.    Total    Solar   Ave.   Snow 
  of    of     Air    Rel.  Wind   Wind    Wind   Baro.  Precip.   Rad.    Soil   Depth
Year   Day     Temp.  Hum.  Speed  Dir.    Gust   Pres.                    Temp.       
2014   (PST)    F      %     mph   deg.    mph     mb.     in.     W/m2     F      in. 
---------------------------------------------------------------------------------------  
 238    6:50   40.5    96    0.7    79      2.9   823.9    0.00      64    64.0   999.0
 238    7:00   41.0    96    0.5   358      2.1   823.9    0.00      67    64.0   999.0
 238    7:10   41.6    96    0.5    10      2.1   824.0    0.00      92    64.0   999.0
 238    7:20   41.9    96    0.4    50      1.2   824.0    0.00     113    64.0   999.0
 238    7:30   41.8    96    2.2    84      4.6   824.0    0.00     129    64.0   999.0
 238    7:40   41.7    96    1.3    94      3.8   824.0    0.00     148    64.1   999.0
 238    7:50   42.0    96    1.1    97      3.8   824.0    0.00     184    64.1   999.0
 238    8:00   42.4    96    1.2    75      3.8   824.1    0.00     193    64.1   999.0
 238    8:10   43.1    96    1.0    69      3.8   824.1    0.00     193    64.0   999.0
 238    8:20   43.9    96    0.4   278      2.1   824.1    0.00     248    64.1   999.0
 238    8:30   44.7    95    1.1    98      3.8   824.2    0.00     341    64.0   999.0
 238    8:40   45.4    95    0.6    80      2.1   824.2    0.00     357    64.0   999.0
 238    8:50   47.3    95    0.6    89      2.9   824.2    0.00     593    64.1   999.0
 238    9:00   48.2    94    1.3   171      3.8   824.2    0.00     515    64.0   999.0
 238    9:10   49.1    94    0.8   207      3.8   824.2    0.00     547    64.1   999.0
 238    9:20   51.3    92    0.9   129      2.9   824.2    0.00     596    64.1   999.0
 238    9:30   53.5    83    0.8   113      3.8   824.2    0.00     611    64.0   999.0
 238    9:40   55.0    71    1.4    94      5.4   824.1    0.00     611    64.1   999.0
 238    9:50   56.3    65    2.0    99      4.6   824.1    0.00     663    64.1   999.0
 238   10:00   57.2    63    2.4    78      5.4   824.0    0.00     676    64.0   999.0
 238   10:10   58.5    60    2.4    67      5.4   824.0    0.00     676    64.0   999.0
 238   10:20   60.2    57    2.3    81      6.3   824.0    0.00     696    64.0   999.0
 238   10:30   62.2    51    2.2    80      6.3   823.9    0.00     740    64.0   999.0
 238   10:40   63.6    49    1.6   107      4.6   823.8    0.00     740    64.0   999.0
 238   10:50   65.9    46    1.7   120      6.3   823.7    0.00     740    64.1   999.0
 238   11:00   66.4    37    3.5   138     11.3   823.7    0.00     740    64.1   999.0
 238   11:10   67.2    33    1.6   199      5.4   823.6    0.00     746    64.1   999.0
 238   11:20   68.4    30    3.1   114      8.0   823.5    0.00     789    64.1   999.0
 238   11:30   69.0    24    3.3   170      8.0   823.5    0.00     804    64.1   999.0
 238   11:40   69.7    24    4.7   106     13.0   823.4    0.00     804    64.1   999.0
 238   11:50   69.1    24    4.7   108      9.6   823.4    0.00     804    64.1   999.0
 238   12:00   69.4    23    4.2   138      9.6   823.4    0.00     804    64.1   999.0
 238   12:10   70.1    23    3.2   124      8.8   823.3    0.00     804    64.1   999.0
 238   12:20   70.6    23    3.7   118     11.3   823.3    0.00     804    64.1   999.0
 238   12:30   70.6    23    3.8    87      9.6   823.3    0.00     804    64.1   999.0
 238   12:40   70.3    24    4.5    82     10.5   823.2    0.00     804    64.1   999.0
 238   12:50   70.8    23    4.4   105     10.5   823.1    0.00     804    64.1   999.0
 238   13:00   71.5    21    3.2   144      9.6   823.1    0.00     799    64.1   999.0
 238   13:10   71.5    22    4.5    85      8.8   823.0    0.00     760    64.1   999.0
 238   13:20   71.9    23    4.1    80     10.5   822.9    0.00     740    64.1   999.0
 238   13:30   72.1    22    3.8   110      8.8   822.9    0.00     740    64.1   999.0
 238   13:40   72.5    20    3.2   238     13.0   822.8    0.00     740    64.1   999.0
 238   13:50   73.0    20    3.9   130     11.3   822.7    0.00     738    64.1   999.0
 238   14:00   72.7    21    4.0    97     10.5   822.6    0.00     684    64.1   999.0
 238   14:10   73.3    20    4.8   135     13.0   822.5    0.00     675    64.1   999.0
 238   14:20   73.0    21    3.6    76     10.5   822.5    0.00     675    64.1   999.0
 238   14:30   74.5    20    2.7   106      9.6   822.4    0.00     664    64.1   999.0
 238   14:40   74.0    18    2.1   150      8.8   822.5    0.00     612    64.1   999.0
 238   14:50   73.9    18    1.1   112      9.6   822.3    0.00     611    64.0   999.0
 238   15:00   75.3    18    1.9   112     13.0   822.3    0.00     596    64.0   999.0
 238   15:10   73.8    19    4.4   100     13.0   822.3    0.00     547    64.0   999.0
 238   15:20   74.2    19    4.7   123     12.1   822.3    0.00     547    64.0   999.0
 238   15:30   74.0    20    1.5    99      8.0   822.3    0.00     519    64.0   999.0
 238   15:40   74.3    19    3.8   163     10.5   822.2    0.00     514    64.0   999.0
 238   15:50   74.0    19    2.2   200      8.0   822.2    0.00     474    64.0   999.0
 238   16:00   74.8    19    3.8   211     10.5   822.2    0.00     450    64.0   999.0
 238   16:10   74.2    20    3.4   121      9.6   822.1    0.00     437    64.0   999.0
 238   16:20   74.7    20    1.1   127      7.1   822.1    0.00     386    63.9   999.0
 238   16:30   74.6    20    4.3   190     10.5   822.2    0.00     381    63.9   999.0
 238   16:40   74.1    21    3.9   103     11.3   822.2    0.00     323    63.9   999.0
 238   16:50   74.0    20    4.2   213     12.1   822.2    0.00     318    63.9   999.0
 238   17:00   74.6    20    3.0   198      9.6   822.1    0.00     260    64.0   999.0
 238   17:10   74.2    20    3.4   212      9.6   822.1    0.00     257    64.0   999.0
 238   17:20   74.2    20    4.2   221     11.3   822.1    0.00     201    63.9   999.0
 238   17:30   73.6    20    4.1   221     11.3   822.2    0.00     193    64.0   999.0
 238   17:40   73.0    20    5.9   221     13.8   822.3    0.00     150    64.0   999.0
 238   17:50   72.4    21    3.7   199     10.5   822.3    0.00     129    64.0   999.0
 238   18:00   71.6    22    4.3   215      9.6   822.4    0.00      54    64.0   999.0
 238   18:10   70.6    22    4.2   206      9.6   822.4    0.00       4    64.0   999.0
 238   18:20   70.4    22    4.5   226      9.6   822.6    0.00      32    64.0   999.0
 238   18:30   69.6    23    3.1   219     12.1   822.7    0.00       0    64.0   999.0
 238   18:40   69.1    23    3.5   229     14.7   822.8    0.00       0    64.0   999.0
 238   18:50   68.5    24    1.1   220      6.3   822.8    0.00       0    64.0   999.0
 238   19:00   67.4    25    0.4   252      2.1   822.9    0.00       0    64.0   999.0
 238   19:10   65.7    26    0.4   280      0.4   823.0    0.00       0    64.0   999.0
 238   19:20   64.6    28    0.4   255      0.4   823.1    0.00       0    63.9   999.0
 238   19:30   64.1    28    0.6   262     12.1   823.2    0.00       0    64.0   999.0
 238   19:40   64.0    28    0.4   246      2.1   823.3    0.00       0    64.0   999.0
 238   19:50   64.1    28    0.4   243      0.4   823.5    0.00       0    64.0   999.0
 238   20:00   62.7    30    0.4   243      0.4   823.6    0.00       0    64.0   999.0
 238   20:10   61.8    30    0.4   184      0.4   823.7    0.00       0    63.9   999.0
 238   20:20   60.4    34    0.4   336      0.4   823.8    0.00       0    64.0   999.0
 238   20:30   58.4    38    0.4    32      0.4   823.8    0.00       0    64.0   999.0
 238   20:40   57.1    40    0.4    19      0.4   824.0    0.00       0    64.0   999.0
 238   20:50   56.1    42    0.4    17      0.4   824.0    0.00       0    64.0   999.0
 238   21:00   55.5    43    0.4    17      0.4   824.1    0.00       0    64.0   999.0
 238   21:10   54.8    44    0.4    17      0.4   824.2    0.00       0    64.0   999.0
 238   21:20   54.3    45    0.4     5      0.4   824.2    0.00       0    64.0   999.0
 238   21:30   53.9    45    0.4   330      0.4   824.3    0.00       0    64.0   999.0
 238   21:40   53.3    46    0.4   330      0.4   824.3    0.00       0    64.0   999.0
 238   21:50   52.7    47    0.4   297      0.4   824.3    0.00       0    64.0   999.0
 238   22:00   51.0    52    0.4    58      0.4   824.3    0.00       0    64.0   999.0
 238   22:10   50.6    51    0.4    69      0.4   824.4    0.00       0    64.0   999.0
 238   22:20   50.6    51    0.4    69      0.4   824.3    0.00       0    64.0   999.0
 238   22:30   50.6    50    0.4    69      0.4   824.3    0.00       0    64.0   999.0
 238   22:40   49.9    50    0.4    69      0.4   824.4    0.00       0    64.0   999.0
 238   22:50   49.4    50    0.4    69      0.4   824.4    0.00       0    64.0   999.0
 238   23:00   48.5    54    0.4    69      0.4   824.5    0.00       0    64.0   999.0
 238   23:10   48.1    55    0.4    69      0.4   824.5    0.00       0    64.0   999.0
 238   23:20   48.5    57    0.4    69      0.4   824.6    0.00       0    64.0   999.0
 238   23:30   48.1    58    0.4    69      0.4   824.7    0.00       0    64.0   999.0
 238   23:40   47.5    58    0.4   355      0.4   824.7    0.00       0    64.0   999.0
 238   23:50   46.7    61    0.4    50      0.4   824.8    0.00       0    64.0   999.0
 239    0:00   46.6    60    0.4   226      0.4   824.8    0.00       0    64.0   999.0
 239    0:10   46.4    60    0.4   225      0.4   824.9    0.00       0    64.0   999.0
 239    0:20   45.5    62    0.4    74      0.4   825.0    0.00       0    64.0   999.0
 239    0:30   45.9    61    0.4   214      0.4   825.0    0.00       0    64.0   999.0
 239    0:40   44.7    64    0.4    98      0.4   825.0    0.00       0    64.0   999.0
 239    0:50   44.1    65    0.4    78      0.4   825.1    0.00       0    64.0   999.0
 239    1:00   44.2    64    0.4    78      0.4   825.1    0.00       0    64.0   999.0
 239    1:10   44.3    64    0.4   112      0.4   825.1    0.00       0    64.0   999.0
 239    1:20   44.1    64    0.4   226      0.4   825.1    0.00       0    64.0   999.0
 239    1:30   43.8    65    0.4   204      0.4   825.2    0.00       0    64.0   999.0
 239    1:40   43.6    67    0.4   189      0.4   825.3    0.00       0    64.0   999.0
 239    1:50   43.4    68    0.4   225      0.4   825.3    0.00       0    64.0   999.0
 239    2:00   42.9    68    0.4   221      0.4   825.4    0.00       0    64.0   999.0
 239    2:10   42.2    70    0.4   214      0.4   825.5    0.00       0    64.0   999.0
 239    2:20   42.3    71    0.4   214      0.4   825.5    0.00       0    64.0   999.0
 239    2:30   42.1    70    0.4   214      0.4   825.5    0.00       0    64.0   999.0
 239    2:40   41.4    72    0.4   214      0.4   825.5    0.00       0    64.0   999.0
 239    2:50   41.4    71    0.4   233      0.4   825.5    0.00       0    64.0   999.0
 239    3:00   41.4    72    0.4   234      0.4   825.5    0.00       0    64.0   999.0
 239    3:10   41.6    71    0.4   234      0.4   825.5    0.00       0    64.0   999.0
 239    3:20   41.0    73    0.4   234      0.4   825.5    0.00       0    64.0   999.0
 239    3:30   40.7    74    0.4   234      0.4   825.5    0.00       0    64.0   999.0
 239    3:40   40.5    75    0.4   234      0.4   825.5    0.00       0    64.0   999.0
 239    3:50   39.8    76    0.4   234      0.4   825.5    0.00       0    64.0   999.0
 239    4:00   39.7    77    0.4   234      0.4   825.7    0.00       0    64.0   999.0
 239    4:10   39.7    78    0.4   234      0.4   825.7    0.00       0    64.0   999.0
 239    4:20   39.2    78    0.4   234      0.4   825.8    0.00       0    64.0   999.0
 239    4:30   39.1    78    0.4   234      0.4   825.8    0.00       0    64.0   999.0
 239    4:40   38.8    79    0.4   233      0.4   825.8    0.00       0    64.0   999.0
 239    4:50   38.8    80    0.4   233      0.4   825.9    0.00       0    64.0   999.0
 239    5:00   39.1    80    0.4   233      0.4   826.0    0.00       0    64.0   999.0
 239    5:10   38.9    80    0.4   233      0.4   826.1    0.00       0    64.0   999.0
 239    5:20   38.9    81    0.4   233      0.4   826.2    0.00       0    64.0   999.0
 239    5:30   38.3    82    0.4   233      0.4   826.3    0.00       0    64.0   999.0
 239    5:40   38.3    82    0.4   233      0.4   826.5    0.00       0    64.0   999.0
 239    5:50   37.5    84    0.4    88      0.4   826.5    0.00       0    64.0   999.0
 239    6:00   37.9    85    0.4    79      0.4   826.5    0.00      24    64.0   999.0
 239    6:10   39.2    81    0.4    79      0.4   826.6    0.00      82    64.0   999.0
 239    6:20   39.7    80    0.4    79      0.4   826.7    0.00     129    64.0   999.0
 239    6:30   40.9    78    0.4    74      0.4   826.7    0.00     129    64.0   999.0
 239    6:40   43.5    73    0.4    74      0.4   826.7    0.00     180    64.0   999.0

Return to Glenshire Elementary graphs page.


Western Regional Climate Center,wrcc@dri.edu